This is the latest recevied weather packets stored in our database for station/object N8QF-1. If no packets are shown the sender has not sent any weather packets the latest 10 day(s).
| Time | Temp. | Humidity | Pressure | Rain* | Wind** | Luminosity | Snow |
|---|---|---|---|---|---|---|---|
| 1777330146 | 18.33° C | 85% | 1014.6 hPa | 0 mm | - | - | - |
| 1777329543 | 18.89° C | 84% | 1014.7 hPa | 0 mm | - | - | - |
| 1777329243 | 18.89° C | 83% | 1014.8 hPa | 0 mm | - | - | - |
| 1777328641 | 20° C | 82% | 1014.7 hPa | 0 mm | - | - | - |
| 1777328340 | 20° C | 79% | 1014.5 hPa | 0 mm | - | - | - |
| 1777328040 | 20.56° C | 75% | 1014.3 hPa | 0 mm | - | - | - |
| 1777327739 | 21.11° C | 74% | 1013.7 hPa | 0 mm | - | - | - |
| 1777327438 | 21.67° C | 71% | 1013.6 hPa | 0 mm | - | - | - |
| 1777327137 | 21.67° C | 70% | 1013.3 hPa | 0 mm | - | - | - |
| 1777326837 | 22.78° C | 65% | 1013 hPa | 0 mm | - | - | - |
| 1777326536 | 23.33° C | 60% | 1012.6 hPa | 0 mm | - | - | - |
| 1777326236 | 23.89° C | 57% | 1011.9 hPa | 0 mm | - | - | - |
| 1777325934 | 23.89° C | 55% | 1011.7 hPa | 0 mm | - | - | - |
| 1777325634 | 24.44° C | 52% | 1011.7 hPa | 0 mm | - | - | - |
| 1777325333 | 24.44° C | 51% | 1011.6 hPa | 0 mm | - | - | - |
| 1777325033 | 24.44° C | 50% | 1011.7 hPa | 0 mm | - | - | - |
| 1777324431 | 25° C | 48% | 1011.7 hPa | 0 mm | - | - | - |
| 1777324130 | 25° C | 47% | 1011.9 hPa | 0 mm | - | - | - |
| 1777323829 | 25° C | 47% | 1012 hPa | 0 mm | - | - | - |
| 1777323529 | 25° C | 46% | 1012 hPa | 0 mm | - | - | - |
| 1777319617 | 25.56° C | 43% | 1012.7 hPa | 0 mm | - | - | - |
| 1777319316 | 25° C | 43% | 1012.8 hPa | 0 mm | - | - | - |
| 1777319015 | 25° C | 43% | 1012.6 hPa | 0 mm | - | - | - |
| 1777318715 | 25.56° C | 44% | 1012.5 hPa | 0 mm | - | - | - |
| 1777318414 | 25.56° C | 43% | 1012.7 hPa | 0 mm | - | - | - |
* Rain latest hour (hover to see other rain measurements)
** Current wind speed in m/s (hover to see current wind gust speed)